| time (UTC) | temp F | wind direction | speed MPH | gust MPH | rain 1hr in | rain 24hr in | rain mn in | humidity % | barometer mb |
| 20260505183012 | 82 | 282 | 1.0 | 3.0 | 0.00 | 0.00 | 0.00 | 94 | 1003.5 |
| 20260505182512 | 82 | 283 | 2.0 | 5.0 | 0.00 | 0.00 | 0.00 | 93 | 1003.5 |
| 20260505182012 | 82 | 270 | 1.0 | 3.0 | 0.00 | 0.00 | 0.00 | 93 | 1003.5 |
| 20260505181512 | 82 | 284 | 2.0 | 3.0 | 0.00 | 0.00 | 0.00 | 93 | 1003.6 |
| 20260505180512 | 82 | 292 | 2.0 | 3.0 | 0.00 | 0.00 | 0.00 | 93 | 1003.9 |
| 20260505175512 | 82 | 278 | 2.0 | 5.0 | 0.00 | 0.00 | 0.00 | 93 | 1004.0 |
| 20260505175013 | 82 | 292 | 2.0 | 3.0 | 0.00 | 0.00 | 0.00 | 93 | 1004.0 |
| 20260505174512 | 82 | 287 | 3.0 | 5.0 | 0.00 | 0.00 | 0.00 | 93 | 1004.0 |
| 20260505174012 | 82 | 280 | 2.0 | 3.0 | 0.00 | 0.00 | 0.00 | 93 | 1004.2 |
| 20260505173513 | 82 | 292 | 2.0 | 5.0 | 0.00 | 0.00 | 0.00 | 93 | 1004.2 |
| 20260505173012 | 82 | 279 | 3.0 | 5.0 | 0.00 | 0.00 | 0.00 | 93 | 1004.4 |
| 20260505172512 | 82 | 297 | 3.0 | 5.0 | 0.00 | 0.00 | 0.00 | 93 | 1004.4 |
| 20260505172011 | 82 | 308 | 2.0 | 5.0 | 0.00 | 0.00 | 0.00 | 93 | 1004.4 |
| 20260505171512 | 82 | 315 | 2.0 | 6.0 | 0.00 | 0.00 | 0.00 | 93 | 1004.4 |
| 20260505170012 | 83 | 292 | 3.0 | 5.0 | 0.00 | 0.00 | 0.00 | 93 | 1004.4 |
| 20260505165511 | 83 | 320 | 2.0 | 2.0 | 0.00 | 0.00 | 0.00 | 93 | 1004.3 |
| 20260505164512 | 83 | 292 | 2.0 | 5.0 | 0.00 | 0.00 | 0.00 | 93 | 1004.3 |
| 20260505164013 | 83 | 292 | 3.0 | 3.0 | 0.00 | 0.00 | 0.00 | 93 | 1004.2 |
| 20260505163012 | 83 | 325 | 2.0 | 2.0 | 0.00 | 0.00 | 0.00 | 92 | 1004.1 |
| 20260505162512 | 83 | 338 | 2.0 | 3.0 | 0.00 | 0.00 | 0.00 | 92 | 1004.1 |
| 20260505162012 | 83 | 309 | 2.0 | 3.0 | 0.00 | 0.00 | 0.00 | 92 | 1004.1 |
| 20260505161012 | 83 | 292 | 1.0 | 3.0 | 0.00 | 0.00 | 0.00 | 92 | 1004.1 |
| 20260505160512 | 83 | 285 | 2.0 | 3.0 | 0.00 | 0.00 | 0.00 | 92 | 1004.1 |
| 20260505153011 | 84 | 276 | 2.0 | 5.0 | 0.00 | 0.00 | 0.00 | 90 | 1003.9 |
| 20260505152511 | 84 | 292 | 2.0 | 3.0 | 0.00 | 0.00 | 0.00 | 90 | 1003.9 |
| 20260505152012 | 84 | 279 | 2.0 | 5.0 | 0.00 | 0.00 | 0.00 | 90 | 1003.9 |
| 20260505151512 | 84 | 283 | 3.0 | 5.0 | 0.00 | 0.00 | 0.00 | 90 | 1003.8 |
| 20260505151012 | 84 | 280 | 3.0 | 6.0 | 0.00 | 0.00 | 0.00 | 90 | 1003.8 |
| 20260505150512 | 84 | 270 | 2.0 | 7.0 | 0.00 | 0.00 | 0.00 | 90 | 1003.8 |
| 20260505140512 | 85 | 277 | 3.0 | 6.0 | 0.00 | 0.00 | 0.00 | 85 | 1002.9 |
| 20260505124511 | 87 | 273 | 5.0 | 8.0 | 0.00 | 0.00 | 0.00 | 72 | 1001.9 |
| 20260505124012 | 87 | 270 | 4.0 | 7.0 | 0.00 | 0.00 | 0.00 | 72 | 1001.7 |
| 20260505123512 | 88 | 259 | 4.0 | 7.0 | 0.00 | 0.00 | 0.00 | 71 | 1001.7 |
| 20260505123012 | 88 | 283 | 3.0 | 5.0 | 0.00 | 0.00 | 0.00 | 71 | 1001.3 |
| 20260505122511 | 88 | 260 | 3.0 | 6.0 | 0.00 | 0.00 | 0.00 | 71 | 1001.3 |
| 20260505122011 | 89 | 270 | 3.0 | 8.0 | 0.00 | 0.00 | 0.00 | 70 | 1001.2 |
| 20260505121512 | 89 | 276 | 5.0 | 7.0 | 0.00 | 0.00 | 0.00 | 69 | 1001.1 |
| 20260505121011 | 90 | 282 | 3.0 | 6.0 | 0.00 | 0.00 | 0.00 | 68 | 1001.1 |
| 20260505120512 | 90 | 261 | 3.0 | 5.0 | 0.00 | 0.00 | 0.00 | 67 | 1001.0 |
| 20260505120012 | 90 | 270 | 3.0 | 7.0 | 0.00 | 0.00 | 0.00 | 66 | 1001.0 |
| 20260505115012 | 91 | 279 | 5.0 | 8.0 | 0.00 | 0.00 | 0.00 | 65 | 1000.9 |
| 20260505114512 | 91 | 235 | 3.0 | 7.0 | 0.00 | 0.00 | 0.00 | 64 | 1000.9 |
| 20260505114011 | 92 | 269 | 3.0 | 5.0 | 0.00 | 0.00 | 0.00 | 63 | 1000.7 |
| 20260505113511 | 91 | 270 | 2.0 | 6.0 | 0.00 | 0.00 | 0.00 | 64 | 1000.7 |
| 20260505113012 | 92 | 264 | 3.0 | 6.0 | 0.00 | 0.00 | 0.00 | 64 | 1000.6 |
| 20260505112511 | 92 | 264 | 3.0 | 8.0 | 0.00 | 0.00 | 0.00 | 65 | 1000.6 |
| 20260505112011 | 91 | 264 | 3.0 | 6.0 | 0.00 | 0.00 | 0.00 | 66 | 1000.6 |
| 20260505111012 | 92 | 225 | 4.0 | 7.0 | 0.00 | 0.00 | 0.00 | 64 | 1000.6 |
| 20260505110511 | 92 | 273 | 4.0 | 6.0 | 0.00 | 0.00 | 0.00 | 64 | 1000.5 |
| 20260505102012 | 93 | 227 | 3.0 | 5.0 | 0.00 | 0.00 | 0.00 | 65 | 1000.7 |
| 20260505101011 | 95 | 225 | 1.0 | 7.0 | 0.00 | 0.00 | 0.00 | 63 | 1000.8 |
| 20260505100511 | 94 | 236 | 2.0 | 5.0 | 0.00 | 0.00 | 0.00 | 63 | 1000.8 |
| 20260505095511 | 94 | 212 | 2.0 | 3.0 | 0.00 | 0.00 | 0.00 | 62 | 1000.9 |
| 20260505095011 | 96 | 232 | 1.0 | 3.0 | 0.00 | 0.00 | 0.00 | 61 | 1000.9 |
| 20260505094011 | 96 | 235 | 2.0 | 3.0 | 0.00 | 0.00 | 0.00 | 59 | 1001.1 |
| 20260505093011 | 97 | 209 | 2.0 | 10.0 | 0.00 | 0.00 | 0.00 | 60 | 1001.3 |
| 20260505092512 | 97 | 277 | 3.0 | 6.0 | 0.00 | 0.00 | 0.00 | 59 | 1001.3 |
| 20260505092012 | 97 | 292 | 2.0 | 5.0 | 0.00 | 0.00 | 0.00 | 60 | 1001.3 |
| 20260505091011 | 96 | 244 | 3.0 | 8.0 | 0.00 | 0.00 | 0.00 | 61 | 1001.6 |
| 20260505090512 | 97 | 233 | 3.0 | 6.0 | 0.00 | 0.00 | 0.00 | 62 | 1001.8 |
| 20260505085512 | 96 | 174 | 3.0 | 5.0 | 0.00 | 0.00 | 0.00 | 63 | 1002.1 |
| 20260505084511 | 96 | 231 | 3.0 | 7.0 | 0.00 | 0.00 | 0.00 | 63 | 1002.1 |
| 20260505084011 | 97 | 266 | 3.0 | 5.0 | 0.00 | 0.00 | 0.00 | 62 | 1002.4 |
| 20260505083511 | 97 | 222 | 3.0 | 6.0 | 0.00 | 0.00 | 0.00 | 61 | 1002.4 |
| 20260505083011 | 98 | 220 | 3.0 | 5.0 | 0.00 | 0.00 | 0.00 | 59 | 1002.6 |
| 20260505082511 | 98 | 245 | 3.0 | 8.0 | 0.00 | 0.00 | 0.00 | 59 | 1002.6 |
| 20260505082011 | 97 | 207 | 4.0 | 9.0 | 0.00 | 0.00 | 0.00 | 61 | 1002.6 |
| 20260505081511 | 98 | 168 | 4.0 | 7.0 | 0.00 | 0.00 | 0.00 | 59 | 1002.9 |
| 20260505081011 | 97 | 279 | 2.0 | 5.0 | 0.00 | 0.00 | 0.00 | 60 | 1002.9 |
| 20260505080511 | 98 | 179 | 3.0 | 5.0 | 0.00 | 0.00 | 0.00 | 60 | 1003.1 |
| 20260505080011 | 97 | 202 | 2.0 | 6.0 | 0.00 | 0.00 | 0.00 | 61 | 1003.1 |
| 20260505075510 | 95 | 158 | 2.0 | 6.0 | 0.00 | 0.00 | 0.00 | 62 | 1003.2 |
| 20260505075011 | 97 | 90 | 3.0 | 6.0 | 0.00 | 0.00 | 0.00 | 60 | 1003.3 |
| 20260505074511 | 96 | 205 | 5.0 | 7.0 | 0.00 | 0.00 | 0.00 | 60 | 1003.3 |
| 20260505074011 | 97 | 228 | 4.0 | 7.0 | 0.00 | 0.00 | 0.00 | 59 | 1003.5 |
| 20260505073511 | 98 | 249 | 4.0 | 9.0 | 0.00 | 0.00 | 0.00 | 59 | 1003.5 |
| 20260505073011 | 97 | 235 | 3.0 | 7.0 | 0.00 | 0.00 | 0.00 | 60 | 1003.8 |
| 20260505072511 | 98 | 275 | 5.0 | 8.0 | 0.00 | 0.00 | 0.00 | 60 | 1003.8 |
| 20260505072011 | 97 | 224 | 3.0 | 6.0 | 0.00 | 0.00 | 0.00 | 60 | 1003.8 |
| 20260505071011 | 97 | 189 | 4.0 | 8.0 | 0.00 | 0.00 | 0.00 | 61 | 1004.0 |
| 20260505070511 | 97 | 185 | 3.0 | 5.0 | 0.00 | 0.00 | 0.00 | 61 | 1004.2 |
| 20260505070011 | 96 | 213 | 3.0 | 6.0 | 0.00 | 0.00 | 0.00 | 62 | 1004.2 |
| 20260505064511 | 96 | 185 | 3.0 | 6.0 | 0.00 | 0.00 | 0.00 | 63 | 1004.3 |
| 20260505064011 | 95 | 235 | 3.0 | 5.0 | 0.00 | 0.00 | 0.00 | 63 | 1004.5 |
| 20260505063511 | 95 | 261 | 3.0 | 5.0 | 0.00 | 0.00 | 0.00 | 64 | 1004.5 |
| 20260505063011 | 94 | 193 | 5.0 | 7.0 | 0.00 | 0.00 | 0.00 | 66 | 1004.7 |
| 20260505062511 | 94 | 188 | 5.0 | 9.0 | 0.00 | 0.00 | 0.00 | 65 | 1004.7 |
| 20260505062011 | 94 | 257 | 4.0 | 7.0 | 0.00 | 0.00 | 0.00 | 66 | 1004.7 |
| 20260505061511 | 94 | 154 | 3.0 | 5.0 | 0.00 | 0.00 | 0.00 | 65 | 1004.8 |
| 20260505061010 | 93 | 270 | 3.0 | 7.0 | 0.00 | 0.00 | 0.00 | 67 | 1004.8 |
| 20260505060511 | 93 | 283 | 5.0 | 6.0 | 0.00 | 0.00 | 0.00 | 67 | 1004.8 |
| 20260505060011 | 93 | 270 | 3.0 | 6.0 | 0.00 | 0.00 | 0.00 | 67 | 1004.8 |
| 20260505055510 | 93 | 224 | 4.0 | 7.0 | 0.00 | 0.00 | 0.00 | 67 | 1004.9 |
| 20260505055010 | 93 | 205 | 3.0 | 6.0 | 0.00 | 0.00 | 0.00 | 67 | 1004.9 |
| 20260505054510 | 93 | 218 | 3.0 | 6.0 | 0.00 | 0.00 | 0.00 | 68 | 1004.9 |
| 20260505053511 | 93 | 198 | 5.0 | 7.0 | 0.00 | 0.00 | 0.00 | 66 | 1004.9 |
| 20260505052510 | 93 | 261 | 3.0 | 5.0 | 0.00 | 0.00 | 0.00 | 66 | 1004.9 |
| 20260505052010 | 92 | 220 | 2.0 | 5.0 | 0.00 | 0.00 | 0.00 | 67 | 1004.9 |
| 20260505051512 | 92 | 216 | 4.0 | 7.0 | 0.00 | 0.00 | 0.00 | 67 | 1004.9 |
| 20260505051012 | 93 | 202 | 3.0 | 7.0 | 0.00 | 0.00 | 0.00 | 66 | 1004.9 |
| 20260505050513 | 93 | 188 | 2.0 | 6.0 | 0.00 | 0.00 | 0.00 | 65 | 1004.8 |
| 20260505041010 | 96 | 338 | 1.0 | 3.0 | 0.00 | 0.00 | 0.00 | 58 | 1004.9 |
| 20260505040511 | 96 | 349 | 2.0 | 6.0 | 0.00 | 0.00 | 0.00 | 58 | 1004.9 |
| 20260505040012 | 98 | 344 | 2.0 | 6.0 | 0.00 | 0.00 | 0.00 | 56 | 1004.9 |
| 20260505035511 | 97 | 270 | 3.0 | 5.0 | 0.00 | 0.00 | 0.00 | 58 | 1004.9 |
| 20260505034510 | 96 | 306 | 3.0 | 5.0 | 0.00 | 0.00 | 0.00 | 61 | 1004.9 |
| 20260505033511 | 95 | 293 | 3.0 | 5.0 | 0.00 | 0.00 | 0.00 | 62 | 1004.9 |
| 20260505032511 | 94 | 292 | 2.0 | 6.0 | 0.00 | 0.00 | 0.00 | 64 | 1004.8 |
| 20260505032010 | 93 | 283 | 2.0 | 5.0 | 0.00 | 0.00 | 0.00 | 66 | 1004.8 |
| 20260505031011 | 94 | 303 | 3.0 | 6.0 | 0.00 | 0.00 | 0.00 | 64 | 1004.9 |
| 20260505030511 | 94 | 292 | 2.0 | 3.0 | 0.00 | 0.00 | 0.00 | 64 | 1004.9 |
| 20260505030011 | 93 | 292 | 0.0 | 2.0 | 0.00 | 0.00 | 0.00 | 66 | 1004.9 |
| 20260505025010 | 92 | 293 | 1.0 | 3.0 | 0.00 | 0.00 | 0.00 | 66 | 1004.7 |
| 20260505024510 | 92 | 331 | 2.0 | 2.0 | 0.00 | 0.00 | 0.00 | 69 | 1004.7 |
| 20260505024011 | 90 | 315 | 2.0 | 3.0 | 0.00 | 0.00 | 0.00 | 72 | 1004.5 |
| 20260505023011 | 88 | 292 | 3.0 | 3.0 | 0.00 | 0.00 | 0.00 | 76 | 1004.4 |
| 20260505022510 | 86 | 326 | 2.0 | 3.0 | 0.00 | 0.00 | 0.00 | 78 | 1004.4 |
| 20260505022010 | 85 | 305 | 2.0 | 3.0 | 0.00 | 0.00 | 0.00 | 82 | 1004.3 |
| 20260505021510 | 84 | 292 | 2.0 | 2.0 | 0.00 | 0.00 | 0.00 | 83 | 1004.2 |
| 20260505021011 | 83 | 292 | 0.0 | 0.0 | 0.00 | 0.00 | 0.00 | 86 | 1004.2 |
| 20260505020011 | 81 | 292 | 1.0 | 2.0 | 0.00 | 0.00 | 0.00 | 89 | 1004.0 |
| 20260505015510 | 81 | 292 | 1.0 | 2.0 | 0.00 | 0.00 | 0.00 | 90 | 1004.0 |
| 20260505015010 | 80 | 310 | 0.0 | 0.0 | 0.00 | 0.00 | 0.00 | 90 | 1004.0 |
| 20260505014511 | 80 | 300 | 0.0 | 0.0 | 0.00 | 0.00 | 0.00 | 91 | 1004.0 |
| 20260505014010 | 80 | 315 | 0.0 | 0.0 | 0.00 | 0.00 | 0.00 | 91 | 1003.8 |
| 20260505013510 | 80 | 315 | 0.0 | 1.0 | 0.00 | 0.00 | 0.00 | 90 | 1003.8 |
| 20260505013010 | 79 | 303 | 2.0 | 2.0 | 0.00 | 0.00 | 0.00 | 91 | 1003.6 |
| 20260505012510 | 79 | 338 | 1.0 | 2.0 | 0.00 | 0.00 | 0.00 | 92 | 1003.6 |
| 20260505012011 | 79 | 312 | 2.0 | 3.0 | 0.00 | 0.00 | 0.00 | 92 | 1003.6 |
| 20260505011511 | 78 | 309 | 0.0 | 0.0 | 0.00 | 0.00 | 0.00 | 93 | 1003.8 |
| 20260505011010 | 78 | 315 | 0.0 | 0.0 | 0.00 | 0.00 | 0.00 | 94 | 1003.8 |
| 20260505010510 | 78 | 338 | 0.0 | 0.0 | 0.00 | 0.00 | 0.00 | 95 | 1003.7 |
| 20260505010010 | 78 | 315 | 0.0 | 0.0 | 0.00 | 0.00 | 0.00 | 96 | 1003.7 |
| 20260505005510 | 77 | 315 | 0.0 | 0.0 | 0.00 | 0.00 | 0.00 | 96 | 1003.7 |
| 20260505005010 | 77 | 338 | 0.0 | 0.0 | 0.00 | 0.00 | 0.00 | 97 | 1003.7 |
| 20260505004510 | 77 | 326 | 0.0 | 0.0 | 0.00 | 0.00 | 0.00 | 97 | 1003.7 |
| 20260505004010 | 77 | 317 | 0.0 | 0.0 | 0.00 | 0.00 | 0.00 | 97 | 1003.4 |
| 20260505003511 | 77 | 338 | 0.0 | 0.0 | 0.00 | 0.00 | 0.00 | 97 | 1003.4 |
| 20260505003010 | 77 | 321 | 0.0 | 0.0 | 0.00 | 0.00 | 0.00 | 97 | 1003.5 |
| 20260505002510 | 77 | 292 | 0.0 | 0.0 | 0.00 | 0.00 | 0.00 | 97 | 1003.5 |
| 20260505002010 | 77 | 315 | 0.0 | 0.0 | 0.00 | 0.00 | 0.00 | 97 | 1003.4 |
| 20260505001010 | 77 | 292 | 0.0 | 0.0 | 0.00 | 0.00 | 0.00 | 97 | 1003.4 |
| 20260505000511 | 77 | 292 | 0.0 | 0.0 | 0.00 | 0.00 | 0.00 | 97 | 1003.4 |
| 20260505000010 | 77 | 292 | 0.0 | 0.0 | 0.00 | 0.00 | 0.00 | 97 | 1003.4 |
| 20260504235010 | 77 | 328 | 0.0 | 0.0 | 0.00 | 0.00 | 0.00 | 96 | 1003.3 |
| 20260504234510 | 77 | 315 | 0.0 | 0.0 | 0.00 | 0.00 | 0.00 | 96 | 1003.3 |
| 20260504234010 | 77 | 315 | 0.0 | 0.0 | 0.00 | 0.00 | 0.00 | 96 | 1003.2 |
| 20260504233510 | 78 | 315 | 0.0 | 0.0 | 0.00 | 0.00 | 0.00 | 96 | 1003.2 |
| 20260504233010 | 78 | 315 | 0.0 | 0.0 | 0.00 | 0.00 | 0.00 | 96 | 1003.0 |
| 20260504232510 | 77 | 315 | 0.0 | 0.0 | 0.00 | 0.00 | 0.00 | 96 | 1003.0 |
| 20260504232010 | 78 | 315 | 0.0 | 0.0 | 0.00 | 0.00 | 0.00 | 96 | 1002.8 |
| 20260504231510 | 78 | 315 | 0.0 | 0.0 | 0.00 | 0.00 | 0.00 | 96 | 1002.8 |
| 20260504231010 | 77 | 328 | 0.0 | 0.0 | 0.00 | 0.00 | 0.00 | 96 | 1002.8 |
| 20260504230511 | 78 | 315 | 0.0 | 0.0 | 0.00 | 0.00 | 0.00 | 96 | 1002.7 |
| 20260504230010 | 78 | 315 | 0.0 | 0.0 | 0.00 | 0.00 | 0.00 | 96 | 1002.7 |
| 20260504225510 | 78 | 315 | 0.0 | 0.0 | 0.00 | 0.00 | 0.00 | 95 | 1002.6 |
| 20260504224510 | 78 | 315 | 0.0 | 0.0 | 0.00 | 0.00 | 0.00 | 95 | 1002.6 |
| 20260504223510 | 78 | 338 | 0.0 | 0.0 | 0.00 | 0.00 | 0.00 | 94 | 1002.4 |
| 20260504223010 | 78 | 338 | 0.0 | 0.0 | 0.00 | 0.00 | 0.00 | 94 | 1002.2 |
| 20260504222510 | 78 | 338 | 0.0 | 0.0 | 0.00 | 0.00 | 0.00 | 94 | 1002.2 |
| 20260504222009 | 78 | 338 | 0.0 | 0.0 | 0.00 | 0.00 | 0.00 | 94 | 1002.2 |
| 20260504221510 | 78 | 3 | 2.0 | 3.0 | 0.00 | 0.00 | 0.00 | 94 | 1002.1 |
| 20260504221010 | 78 | 297 | 0.0 | 2.0 | 0.00 | 0.00 | 0.00 | 94 | 1002.1 |
| 20260504220510 | 78 | 292 | 1.0 | 2.0 | 0.00 | 0.00 | 0.00 | 94 | 1002.0 |
| 20260504215510 | 78 | 292 | 0.0 | 2.0 | 0.00 | 0.00 | 0.00 | 94 | 1001.8 |
| 20260504215010 | 79 | 321 | 0.0 | 2.0 | 0.00 | 0.00 | 0.00 | 94 | 1001.8 |
| 20260504214510 | 78 | 315 | 0.0 | 2.0 | 0.00 | 0.00 | 0.00 | 94 | 1001.8 |
| 20260504214010 | 78 | 328 | 2.0 | 2.0 | 0.00 | 0.00 | 0.00 | 94 | 1002.0 |
| 20260504213511 | 78 | 292 | 0.0 | 0.0 | 0.00 | 0.00 | 0.00 | 93 | 1002.0 |
| 20260504212510 | 79 | 292 | 0.0 | 0.0 | 0.00 | 0.00 | 0.00 | 93 | 1002.0 |
| 20260504211510 | 79 | 292 | 1.0 | 2.0 | 0.00 | 0.00 | 0.00 | 93 | 1002.0 |
| 20260504211010 | 79 | 338 | 1.0 | 2.0 | 0.00 | 0.00 | 0.00 | 92 | 1002.0 |
| 20260504210510 | 79 | 303 | 0.0 | 2.0 | 0.00 | 0.00 | 0.00 | 92 | 1002.0 |
| 20260504210010 | 79 | 302 | 0.0 | 0.0 | 0.00 | 0.00 | 0.00 | 91 | 1002.0 |
| 20260504205510 | 79 | 315 | 1.0 | 2.0 | 0.00 | 0.00 | 0.00 | 91 | 1002.1 |
| 20260504205010 | 79 | 315 | 0.0 | 0.0 | 0.00 | 0.00 | 0.00 | 91 | 1002.1 |
| 20260504204510 | 79 | 315 | 0.0 | 0.0 | 0.00 | 0.00 | 0.00 | 91 | 1002.1 |
| 20260504204010 | 79 | 315 | 1.0 | 2.0 | 0.00 | 0.00 | 0.00 | 91 | 1002.1 |
| 20260504203510 | 79 | 335 | 0.0 | 0.0 | 0.00 | 0.00 | 0.00 | 91 | 1002.1 |
| 20260504201510 | 79 | 315 | 0.0 | 0.0 | 0.00 | 0.00 | 0.00 | 90 | 1002.3 |
| 20260504200510 | 79 | 315 | 1.0 | 2.0 | 0.00 | 0.00 | 0.00 | 89 | 1002.4 |
| 20260504200010 | 80 | 315 | 2.0 | 2.0 | 0.00 | 0.00 | 0.00 | 89 | 1002.4 |
| 20260504195510 | 80 | 302 | 0.0 | 1.0 | 0.00 | 0.00 | 0.00 | 88 | 1002.7 |
| 20260504195010 | 80 | 292 | 1.0 | 2.0 | 0.00 | 0.00 | 0.00 | 88 | 1002.7 |
| 20260504194510 | 80 | 315 | 2.0 | 2.0 | 0.00 | 0.00 | 0.00 | 88 | 1002.7 |
| 20260504194010 | 80 | 292 | 1.0 | 2.0 | 0.00 | 0.00 | 0.00 | 88 | 1002.9 |
| 20260504192010 | 80 | 323 | 2.0 | 3.0 | 0.00 | 0.00 | 0.00 | 86 | 1003.2 |
| 20260504191510 | 80 | 315 | 2.0 | 2.0 | 0.00 | 0.00 | 0.00 | 86 | 1003.3 |
| 20260504191010 | 80 | 292 | 0.0 | 2.0 | 0.00 | 0.00 | 0.00 | 85 | 1003.3 |
| 20260504190510 | 80 | 327 | 2.0 | 3.0 | 0.00 | 0.00 | 0.00 | 85 | 1003.6 |
| 20260504190010 | 80 | 304 | 2.0 | 2.0 | 0.00 | 0.00 | 0.00 | 85 | 1003.6 |
| 20260504185510 | 80 | 292 | 2.0 | 3.0 | 0.00 | 0.00 | 0.00 | 85 | 1003.8 |
| 20260504185010 | 80 | 324 | 0.0 | 2.0 | 0.00 | 0.00 | 0.00 | 84 | 1003.8 |
| 20260504184510 | 80 | 328 | 1.0 | 2.0 | 0.00 | 0.00 | 0.00 | 84 | 1003.8 |
| 20260504184009 | 80 | 329 | 2.0 | 5.0 | 0.00 | 0.00 | 0.00 | 84 | 1003.9 |
| 20260504183510 | 80 | 338 | 2.0 | 3.0 | 0.00 | 0.00 | 0.00 | 84 | 1003.9 |